sensor_id;sensor_type;location;lat;lon;timestamp;P1;P2;P0
72509;PMS5003;60532;56.114;40.350;2022-08-14T00:00:57;16.75;14.50;10.25
72509;PMS5003;60532;56.114;40.350;2022-08-14T00:05:58;16.75;16.25;10.00
72509;PMS5003;60532;56.114;40.350;2022-08-14T00:10:59;16.00;16.00;11.20
72509;PMS5003;60532;56.114;40.350;2022-08-14T00:16:00;15.25;14.25;9.25
72509;PMS5003;60532;56.114;40.350;2022-08-14T00:21:00;15.00;15.00;10.75
72509;PMS5003;60532;56.114;40.350;2022-08-14T00:26:02;13.60;13.60;9.00
72509;PMS5003;60532;56.114;40.350;2022-08-14T00:31:03;15.00;15.00;8.25
72509;PMS5003;60532;56.114;40.350;2022-08-14T00:36:04;12.60;12.60;9.00
72509;PMS5003;60532;56.114;40.350;2022-08-14T00:41:06;10.00;8.60;6.60
72509;PMS5003;60532;56.114;40.350;2022-08-14T00:46:08;9.00;8.80;5.20
72509;PMS5003;60532;56.114;40.350;2022-08-14T00:51:09;10.60;10.60;8.00
72509;PMS5003;60532;56.114;40.350;2022-08-14T00:56:10;11.25;11.25;7.00
72509;PMS5003;60532;56.114;40.350;2022-08-14T01:01:10;13.00;13.00;6.75
72509;PMS5003;60532;56.114;40.350;2022-08-14T01:06:13;16.00;13.20;8.80
72509;PMS5003;60532;56.114;40.350;2022-08-14T01:11:17;15.60;11.40;8.80
72509;PMS5003;60532;56.114;40.350;2022-08-14T01:16:17;16.50;14.00;9.00
72509;PMS5003;60532;56.114;40.350;2022-08-14T01:21:35;15.20;13.80;8.60
72509;PMS5003;60532;56.114;40.350;2022-08-14T01:26:38;14.40;14.40;9.00
72509;PMS5003;60532;56.114;40.350;2022-08-14T01:31:39;13.00;13.00;9.00
72509;PMS5003;60532;56.114;40.350;2022-08-14T01:36:47;15.60;15.60;10.00
72509;PMS5003;60532;56.114;40.350;2022-08-14T01:41:50;16.00;15.60;10.20
72509;PMS5003;60532;56.114;40.350;2022-08-14T01:47:01;14.40;12.20;8.60
72509;PMS5003;60532;56.114;40.350;2022-08-14T01:52:02;15.00;14.00;10.00
72509;PMS5003;60532;56.114;40.350;2022-08-14T01:57:02;15.50;15.00;9.75
72509;PMS5003;60532;56.114;40.350;2022-08-14T02:02:04;12.00;12.00;7.00
72509;PMS5003;60532;56.114;40.350;2022-08-14T02:07:11;11.00;11.00;9.00
72509;PMS5003;60532;56.114;40.350;2022-08-14T02:12:12;12.50;12.50;8.75
72509;PMS5003;60532;56.114;40.350;2022-08-14T02:17:13;14.60;14.20;10.00
72509;PMS5003;60532;56.114;40.350;2022-08-14T02:22:13;12.50;12.50;7.75
72509;PMS5003;60532;56.114;40.350;2022-08-14T02:27:18;14.80;13.20;8.00
72509;PMS5003;60532;56.114;40.350;2022-08-14T02:32:19;11.60;11.60;7.00
72509;PMS5003;60532;56.114;40.350;2022-08-14T02:37:20;14.25;14.25;9.00
72509;PMS5003;60532;56.114;40.350;2022-08-14T02:42:21;14.50;13.25;9.00
72509;PMS5003;60532;56.114;40.350;2022-08-14T02:47:23;13.40;13.40;9.40
72509;PMS5003;60532;56.114;40.350;2022-08-14T02:52:23;14.00;14.00;9.25
72509;PMS5003;60532;56.114;40.350;2022-08-14T02:57:25;16.20;15.20;10.00
72509;PMS5003;60532;56.114;40.350;2022-08-14T03:02:26;14.60;14.40;9.60
72509;PMS5003;60532;56.114;40.350;2022-08-14T03:07:30;15.80;14.00;9.40
72509;PMS5003;60532;56.114;40.350;2022-08-14T03:12:30;15.00;14.00;10.00
72509;PMS5003;60532;56.114;40.350;2022-08-14T03:17:31;14.75;13.25;9.00
72509;PMS5003;60532;56.114;40.350;2022-08-14T03:22:32;13.75;13.75;9.50
72509;PMS5003;60532;56.114;40.350;2022-08-14T03:27:33;13.00;12.75;9.50
72509;PMS5003;60532;56.114;40.350;2022-08-14T03:32:33;16.50;14.75;10.00
72509;PMS5003;60532;56.114;40.350;2022-08-14T03:37:34;14.00;14.00;9.75
72509;PMS5003;60532;56.114;40.350;2022-08-14T03:42:35;15.75;15.75;10.25
72509;PMS5003;60532;56.114;40.350;2022-08-14T03:47:36;15.00;15.00;10.67
72509;PMS5003;60532;56.114;40.350;2022-08-14T03:52:39;9.50;8.75;5.00
72509;PMS5003;60532;56.114;40.350;2022-08-14T03:57:43;14.25;14.25;9.00
72509;PMS5003;60532;56.114;40.350;2022-08-14T04:02:44;20.50;16.25;11.75
72509;PMS5003;60532;56.114;40.350;2022-08-14T04:07:44;16.67;16.67;11.67
72509;PMS5003;60532;56.114;40.350;2022-08-14T04:12:46;15.00;15.00;9.25
72509;PMS5003;60532;56.114;40.350;2022-08-14T04:17:46;18.33;18.33;11.67
72509;PMS5003;60532;56.114;40.350;2022-08-14T04:22:47;15.67;14.67;9.67
72509;PMS5003;60532;56.114;40.350;2022-08-14T04:27:50;13.75;13.75;9.00
72509;PMS5003;60532;56.114;40.350;2022-08-14T04:32:50;16.33;15.67;10.00
72509;PMS5003;60532;56.114;40.350;2022-08-14T04:37:51;11.67;11.67;8.33
72509;PMS5003;60532;56.114;40.350;2022-08-14T04:43:10;14.75;13.00;9.75
72509;PMS5003;60532;56.114;40.350;2022-08-14T04:48:28;12.00;11.50;8.25
72509;PMS5003;60532;56.114;40.350;2022-08-14T04:53:30;13.00;13.00;9.00
72509;PMS5003;60532;56.114;40.350;2022-08-14T04:58:33;15.50;14.00;10.00
72509;PMS5003;60532;56.114;40.350;2022-08-14T05:03:34;11.00;10.25;7.00
72509;PMS5003;60532;56.114;40.350;2022-08-14T05:08:35;12.00;11.50;7.00
72509;PMS5003;60532;56.114;40.350;2022-08-14T05:13:36;15.25;14.00;8.25
72509;PMS5003;60532;56.114;40.350;2022-08-14T05:18:37;14.25;14.25;9.50
72509;PMS5003;60532;56.114;40.350;2022-08-14T05:23:38;15.00;11.67;9.00
72509;PMS5003;60532;56.114;40.350;2022-08-14T05:28:40;14.00;12.25;9.25
72509;PMS5003;60532;56.114;40.350;2022-08-14T05:33:44;10.75;10.75;8.00
72509;PMS5003;60532;56.114;40.350;2022-08-14T05:38:45;16.75;12.75;9.50
72509;PMS5003;60532;56.114;40.350;2022-08-14T05:43:46;10.00;10.00;8.75
72509;PMS5003;60532;56.114;40.350;2022-08-14T05:48:48;12.50;12.50;7.75
72509;PMS5003;60532;56.114;40.350;2022-08-14T05:53:48;12.25;12.25;9.50
72509;PMS5003;60532;56.114;40.350;2022-08-14T05:58:49;15.67;12.33;9.00
72509;PMS5003;60532;56.114;40.350;2022-08-14T06:03:50;14.00;13.00;8.33
72509;PMS5003;60532;56.114;40.350;2022-08-14T06:08:50;15.00;13.67;10.00
72509;PMS5003;60532;56.114;40.350;2022-08-14T06:13:51;15.00;15.00;11.00
72509;PMS5003;60532;56.114;40.350;2022-08-14T06:18:51;19.00;14.67;11.00
72509;PMS5003;60532;56.114;40.350;2022-08-14T06:23:52;24.00;17.33;10.00
72509;PMS5003;60532;56.114;40.350;2022-08-14T06:28:52;30.33;18.67;12.33
72509;PMS5003;60532;56.114;40.350;2022-08-14T06:33:53;27.67;20.00;11.67
72509;PMS5003;60532;56.114;40.350;2022-08-14T06:38:54;21.33;12.00;9.00
72509;PMS5003;60532;56.114;40.350;2022-08-14T06:43:54;20.67;16.33;10.33
72509;PMS5003;60532;56.114;40.350;2022-08-14T06:48:55;16.67;15.67;7.67
72509;PMS5003;60532;56.114;40.350;2022-08-14T06:53:55;27.33;17.67;9.67
72509;PMS5003;60532;56.114;40.350;2022-08-14T06:58:56;15.33;14.00;8.00
72509;PMS5003;60532;56.114;40.350;2022-08-14T07:03:56;12.00;12.00;8.33
72509;PMS5003;60532;56.114;40.350;2022-08-14T07:09:15;10.75;10.75;8.00
72509;PMS5003;60532;56.114;40.350;2022-08-14T07:14:16;12.00;10.00;8.00
72509;PMS5003;60532;56.114;40.350;2022-08-14T07:19:17;11.67;10.33;7.00
72509;PMS5003;60532;56.114;40.350;2022-08-14T07:24:18;8.25;8.00;6.00
72509;PMS5003;60532;56.114;40.350;2022-08-14T07:29:19;10.75;9.25;5.75
72509;PMS5003;60532;56.114;40.350;2022-08-14T07:34:22;9.00;9.00;6.50
72509;PMS5003;60532;56.114;40.350;2022-08-14T07:39:23;11.00;10.25;6.25
72509;PMS5003;60532;56.114;40.350;2022-08-14T07:44:24;8.33;8.33;6.00
72509;PMS5003;60532;56.114;40.350;2022-08-14T07:49:24;7.00;7.00;5.00
72509;PMS5003;60532;56.114;40.350;2022-08-14T07:54:26;11.00;11.00;8.00
72509;PMS5003;60532;56.114;40.350;2022-08-14T07:59:27;9.00;9.00;6.00
72509;PMS5003;60532;56.114;40.350;2022-08-14T08:04:28;9.75;9.75;7.00
72509;PMS5003;60532;56.114;40.350;2022-08-14T08:09:29;9.75;8.75;7.00
72509;PMS5003;60532;56.114;40.350;2022-08-14T08:14:34;9.25;9.25;6.75
72509;PMS5003;60532;56.114;40.350;2022-08-14T08:19:36;9.50;8.75;6.25
72509;PMS5003;60532;56.114;40.350;2022-08-14T08:24:37;7.50;7.00;6.00
72509;PMS5003;60532;56.114;40.350;2022-08-14T08:29:38;7.67;6.00;5.00
72509;PMS5003;60532;56.114;40.350;2022-08-14T08:34:45;10.00;8.00;6.00
72509;PMS5003;60532;56.114;40.350;2022-08-14T08:39:46;9.50;9.50;5.75
72509;PMS5003;60532;56.114;40.350;2022-08-14T08:44:52;9.25;8.00;5.75
72509;PMS5003;60532;56.114;40.350;2022-08-14T08:49:53;8.25;8.25;6.00
72509;PMS5003;60532;56.114;40.350;2022-08-14T08:54:53;9.00;8.67;6.00
72509;PMS5003;60532;56.114;40.350;2022-08-14T08:59:54;9.33;8.00;5.00
72509;PMS5003;60532;56.114;40.350;2022-08-14T09:05:00;7.75;7.00;5.00
72509;PMS5003;60532;56.114;40.350;2022-08-14T09:10:01;9.25;9.25;6.75
72509;PMS5003;60532;56.114;40.350;2022-08-14T09:15:05;7.00;7.00;5.00
72509;PMS5003;60532;56.114;40.350;2022-08-14T09:20:06;10.50;9.75;6.00
72509;PMS5003;60532;56.114;40.350;2022-08-14T09:25:07;7.33;7.00;5.00
72509;PMS5003;60532;56.114;40.350;2022-08-14T09:30:08;9.50;9.50;6.00
72509;PMS5003;60532;56.114;40.350;2022-08-14T09:35:15;10.75;10.00;7.00
72509;PMS5003;60532;56.114;40.350;2022-08-14T09:45:38;7.00;7.00;5.75
72509;PMS5003;60532;56.114;40.350;2022-08-14T09:50:55;9.50;8.50;7.00
72509;PMS5003;60532;56.114;40.350;2022-08-14T09:55:57;10.25;10.25;7.25
72509;PMS5003;60532;56.114;40.350;2022-08-14T10:00:57;8.75;8.75;6.00
72509;PMS5003;60532;56.114;40.350;2022-08-14T10:06:03;7.50;7.50;5.25
72509;PMS5003;60532;56.114;40.350;2022-08-14T10:11:11;11.50;11.00;7.75
72509;PMS5003;60532;56.114;40.350;2022-08-14T10:16:17;9.00;9.00;8.00
72509;PMS5003;60532;56.114;40.350;2022-08-14T10:21:17;10.00;10.00;6.33
72509;PMS5003;60532;56.114;40.350;2022-08-14T10:26:18;9.33;9.33;7.00
72509;PMS5003;60532;56.114;40.350;2022-08-14T10:36:26;8.33;8.00;7.00
72509;PMS5003;60532;56.114;40.350;2022-08-14T10:41:34;11.25;10.00;6.50
72509;PMS5003;60532;56.114;40.350;2022-08-14T10:46:45;9.75;9.75;6.50
72509;PMS5003;60532;56.114;40.350;2022-08-14T11:12:55;11.75;11.75;8.75
72509;PMS5003;60532;56.114;40.350;2022-08-14T11:17:56;11.25;10.50;8.00
72509;PMS5003;60532;56.114;40.350;2022-08-14T11:22:58;11.00;11.00;8.00
72509;PMS5003;60532;56.114;40.350;2022-08-14T11:27:59;10.00;10.00;7.00
72509;PMS5003;60532;56.114;40.350;2022-08-14T11:33:00;12.67;12.00;7.67
72509;PMS5003;60532;56.114;40.350;2022-08-14T11:38:03;9.75;9.75;7.00
72509;PMS5003;60532;56.114;40.350;2022-08-14T11:43:05;10.00;10.00;7.00
72509;PMS5003;60532;56.114;40.350;2022-08-14T11:48:13;13.50;10.75;8.50
72509;PMS5003;60532;56.114;40.350;2022-08-14T11:53:21;10.50;9.50;6.25
72509;PMS5003;60532;56.114;40.350;2022-08-14T11:58:25;10.25;10.25;7.50
72509;PMS5003;60532;56.114;40.350;2022-08-14T12:03:33;12.00;11.25;7.75
72509;PMS5003;60532;56.114;40.350;2022-08-14T12:08:35;12.75;12.75;8.75
72509;PMS5003;60532;56.114;40.350;2022-08-14T12:13:36;16.75;16.00;8.75
72509;PMS5003;60532;56.114;40.350;2022-08-14T12:18:37;14.67;14.67;9.67
72509;PMS5003;60532;56.114;40.350;2022-08-14T12:23:39;14.25;14.25;10.00
72509;PMS5003;60532;56.114;40.350;2022-08-14T12:28:39;13.00;13.00;9.00
72509;PMS5003;60532;56.114;40.350;2022-08-14T12:33:40;11.33;11.33;7.67
72509;PMS5003;60532;56.114;40.350;2022-08-14T12:38:41;12.00;12.00;8.67
72509;PMS5003;60532;56.114;40.350;2022-08-14T12:44:01;12.75;12.75;9.00
72509;PMS5003;60532;56.114;40.350;2022-08-14T12:49:08;12.00;11.50;7.50
72509;PMS5003;60532;56.114;40.350;2022-08-14T12:54:16;12.25;12.00;8.00
72509;PMS5003;60532;56.114;40.350;2022-08-14T12:59:17;12.00;11.25;7.25
72509;PMS5003;60532;56.114;40.350;2022-08-14T13:04:17;5.67;5.67;5.67
72509;PMS5003;60532;56.114;40.350;2022-08-14T13:09:20;11.50;10.50;7.00
72509;PMS5003;60532;56.114;40.350;2022-08-14T13:14:27;10.75;10.75;8.00
72509;PMS5003;60532;56.114;40.350;2022-08-14T13:19:29;9.50;9.25;7.50
72509;PMS5003;60532;56.114;40.350;2022-08-14T13:24:29;12.00;12.00;8.67
72509;PMS5003;60532;56.114;40.350;2022-08-14T13:29:31;12.00;12.00;9.00
72509;PMS5003;60532;56.114;40.350;2022-08-14T13:34:36;10.25;10.25;8.00
72509;PMS5003;60532;56.114;40.350;2022-08-14T13:39:37;12.00;10.00;7.25
72509;PMS5003;60532;56.114;40.350;2022-08-14T13:44:38;9.33;9.33;6.00
72509;PMS5003;60532;56.114;40.350;2022-08-14T13:49:39;9.00;9.00;7.00
72509;PMS5003;60532;56.114;40.350;2022-08-14T13:54:41;10.00;10.00;6.50
72509;PMS5003;60532;56.114;40.350;2022-08-14T13:59:44;12.00;12.00;7.00
72509;PMS5003;60532;56.114;40.350;2022-08-14T14:04:46;11.75;11.00;8.00
72509;PMS5003;60532;56.114;40.350;2022-08-14T14:09:47;12.25;11.50;6.75
72509;PMS5003;60532;56.114;40.350;2022-08-14T14:14:48;10.50;10.25;7.25
72509;PMS5003;60532;56.114;40.350;2022-08-14T14:19:49;9.67;9.67;7.33
72509;PMS5003;60532;56.114;40.350;2022-08-14T14:24:50;10.50;10.50;6.75
72509;PMS5003;60532;56.114;40.350;2022-08-14T14:29:52;9.00;7.75;5.25
72509;PMS5003;60532;56.114;40.350;2022-08-14T14:34:57;10.00;9.50;8.00
72509;PMS5003;60532;56.114;40.350;2022-08-14T14:40:00;10.25;10.25;7.00
72509;PMS5003;60532;56.114;40.350;2022-08-14T14:45:05;11.75;8.50;7.00
72509;PMS5003;60532;56.114;40.350;2022-08-14T14:50:12;9.50;9.25;7.00
72509;PMS5003;60532;56.114;40.350;2022-08-14T14:55:12;10.33;9.00;6.67
72509;PMS5003;60532;56.114;40.350;2022-08-14T15:00:14;12.33;12.33;8.67
72509;PMS5003;60532;56.114;40.350;2022-08-14T15:05:15;9.25;9.25;7.00
72509;PMS5003;60532;56.114;40.350;2022-08-14T15:10:17;11.00;11.00;7.00
72509;PMS5003;60532;56.114;40.350;2022-08-14T15:15:18;12.50;11.25;7.75
72509;PMS5003;60532;56.114;40.350;2022-08-14T15:20:18;11.00;11.00;7.00
72509;PMS5003;60532;56.114;40.350;2022-08-14T15:25:21;10.00;10.00;7.50
72509;PMS5003;60532;56.114;40.350;2022-08-14T15:30:21;11.00;11.00;7.67
72509;PMS5003;60532;56.114;40.350;2022-08-14T15:35:22;9.67;9.67;7.00
72509;PMS5003;60532;56.114;40.350;2022-08-14T15:40:22;11.00;11.00;8.00
72509;PMS5003;60532;56.114;40.350;2022-08-14T15:45:23;11.00;8.67;6.67
72509;PMS5003;60532;56.114;40.350;2022-08-14T15:50:23;11.33;10.33;7.00
72509;PMS5003;60532;56.114;40.350;2022-08-14T15:55:25;13.25;13.25;8.25
72509;PMS5003;60532;56.114;40.350;2022-08-14T16:00:25;12.00;10.00;6.33
72509;PMS5003;60532;56.114;40.350;2022-08-14T16:05:44;14.50;13.25;8.00
72509;PMS5003;60532;56.114;40.350;2022-08-14T16:10:45;11.00;9.00;6.00
72509;PMS5003;60532;56.114;40.350;2022-08-14T16:15:46;12.25;12.25;8.50
72509;PMS5003;60532;56.114;40.350;2022-08-14T16:20:51;14.25;11.00;7.75
72509;PMS5003;60532;56.114;40.350;2022-08-14T16:25:58;13.75;13.00;8.50
72509;PMS5003;60532;56.114;40.350;2022-08-14T16:31:01;12.75;12.75;8.25
72509;PMS5003;60532;56.114;40.350;2022-08-14T16:36:02;15.00;10.67;7.00
72509;PMS5003;60532;56.114;40.350;2022-08-14T16:41:04;13.75;11.50;8.75
72509;PMS5003;60532;56.114;40.350;2022-08-14T16:46:17;14.50;13.50;8.75
72509;PMS5003;60532;56.114;40.350;2022-08-14T16:51:18;13.00;12.00;8.67
72509;PMS5003;60532;56.114;40.350;2022-08-14T16:56:22;11.67;11.67;7.00
72509;PMS5003;60532;56.114;40.350;2022-08-14T17:01:23;13.00;12.00;9.00
72509;PMS5003;60532;56.114;40.350;2022-08-14T17:06:39;15.33;14.00;9.00
72509;PMS5003;60532;56.114;40.350;2022-08-14T17:11:48;12.00;11.75;8.00
72509;PMS5003;60532;56.114;40.350;2022-08-14T17:16:57;15.25;12.75;10.00
72509;PMS5003;60532;56.114;40.350;2022-08-14T17:21:58;14.50;12.75;8.75
72509;PMS5003;60532;56.114;40.350;2022-08-14T17:26:58;15.00;14.00;9.33
72509;PMS5003;60532;56.114;40.350;2022-08-14T17:32:05;15.00;14.00;9.00
72509;PMS5003;60532;56.114;40.350;2022-08-14T17:37:06;12.00;11.25;7.25
72509;PMS5003;60532;56.114;40.350;2022-08-14T17:42:06;17.00;15.67;9.00
72509;PMS5003;60532;56.114;40.350;2022-08-14T17:47:08;18.00;17.67;10.33
72509;PMS5003;60532;56.114;40.350;2022-08-14T17:52:10;21.25;18.50;11.00
72509;PMS5003;60532;56.114;40.350;2022-08-14T17:57:11;15.75;15.75;11.00
72509;PMS5003;60532;56.114;40.350;2022-08-14T18:02:13;14.25;14.25;10.25
72509;PMS5003;60532;56.114;40.350;2022-08-14T18:07:14;14.00;12.00;7.25
72509;PMS5003;60532;56.114;40.350;2022-08-14T18:12:15;14.50;14.50;8.75
72509;PMS5003;60532;56.114;40.350;2022-08-14T18:17:17;16.25;16.25;9.25
72509;PMS5003;60532;56.114;40.350;2022-08-14T18:22:20;16.75;16.00;11.00
72509;PMS5003;60532;56.114;40.350;2022-08-14T18:27:23;20.60;20.20;11.80
72509;PMS5003;60532;56.114;40.350;2022-08-14T18:37:31;13.00;11.60;8.00
72509;PMS5003;60532;56.114;40.350;2022-08-14T18:47:33;20.00;17.80;11.80
72509;PMS5003;60532;56.114;40.350;2022-08-14T19:03:07;22.80;22.00;13.40
72509;PMS5003;60532;56.114;40.350;2022-08-14T19:13:42;27.60;26.20;16.00
72509;PMS5003;60532;56.114;40.350;2022-08-14T19:18:49;27.40;26.20;15.60
72509;PMS5003;60532;56.114;40.350;2022-08-14T19:39:45;34.80;31.40;19.20
72509;PMS5003;60532;56.114;40.350;2022-08-14T19:44:47;34.60;32.00;20.00
72509;PMS5003;60532;56.114;40.350;2022-08-14T19:49:48;32.00;30.50;18.50
72509;PMS5003;60532;56.114;40.350;2022-08-14T19:54:50;33.20;30.40;19.40
72509;PMS5003;60532;56.114;40.350;2022-08-14T20:00:03;34.00;31.80;19.80
72509;PMS5003;60532;56.114;40.350;2022-08-14T20:05:08;32.20;29.80;18.00
72509;PMS5003;60532;56.114;40.350;2022-08-14T20:10:10;29.40;27.20;15.40
72509;PMS5003;60532;56.114;40.350;2022-08-14T20:15:27;33.20;30.40;19.80
72509;PMS5003;60532;56.114;40.350;2022-08-14T20:20:28;32.40;31.00;19.40
72509;PMS5003;60532;56.114;40.350;2022-08-14T20:25:34;33.25;31.75;18.00
72509;PMS5003;60532;56.114;40.350;2022-08-14T20:30:35;26.00;24.40;16.40
72509;PMS5003;60532;56.114;40.350;2022-08-14T20:40:38;27.25;26.25;17.00
72509;PMS5003;60532;56.114;40.350;2022-08-14T20:45:44;30.80;30.40;16.00
72509;PMS5003;60532;56.114;40.350;2022-08-14T20:50:48;26.00;26.00;16.00
72509;PMS5003;60532;56.114;40.350;2022-08-14T20:55:48;28.25;26.25;15.00
72509;PMS5003;60532;56.114;40.350;2022-08-14T21:05:58;28.60;27.60;17.60
72509;PMS5003;60532;56.114;40.350;2022-08-14T21:11:00;30.80;26.00;15.60
72509;PMS5003;60532;56.114;40.350;2022-08-14T21:16:01;32.60;30.60;17.20
72509;PMS5003;60532;56.114;40.350;2022-08-14T21:21:04;27.00;26.25;16.25
72509;PMS5003;60532;56.114;40.350;2022-08-14T21:26:06;24.60;22.40;16.20
72509;PMS5003;60532;56.114;40.350;2022-08-14T21:31:07;28.50;28.50;18.00
72509;PMS5003;60532;56.114;40.350;2022-08-14T21:36:08;33.50;31.25;18.00
72509;PMS5003;60532;56.114;40.350;2022-08-14T21:41:12;33.00;31.00;16.80
72509;PMS5003;60532;56.114;40.350;2022-08-14T21:46:23;29.20;25.80;17.40
72509;PMS5003;60532;56.114;40.350;2022-08-14T21:51:23;32.75;28.00;15.00
72509;PMS5003;60532;56.114;40.350;2022-08-14T21:56:25;21.40;21.20;16.40
72509;PMS5003;60532;56.114;40.350;2022-08-14T22:01:26;30.40;26.40;17.20
72509;PMS5003;60532;56.114;40.350;2022-08-14T22:06:27;27.75;26.00;16.75
72509;PMS5003;60532;56.114;40.350;2022-08-14T22:11:27;28.00;26.25;15.50
72509;PMS5003;60532;56.114;40.350;2022-08-14T22:16:28;24.00;24.00;15.75
72509;PMS5003;60532;56.114;40.350;2022-08-14T22:21:29;30.50;28.00;17.50
72509;PMS5003;60532;56.114;40.350;2022-08-14T22:26:29;27.75;26.75;17.00
72509;PMS5003;60532;56.114;40.350;2022-08-14T22:31:30;28.25;24.75;13.25
72509;PMS5003;60532;56.114;40.350;2022-08-14T22:36:31;27.20;25.40;16.60
72509;PMS5003;60532;56.114;40.350;2022-08-14T22:41:48;27.40;25.40;13.20
72509;PMS5003;60532;56.114;40.350;2022-08-14T22:46:50;24.20;23.80;14.00
72509;PMS5003;60532;56.114;40.350;2022-08-14T22:51:51;23.80;23.40;14.80
72509;PMS5003;60532;56.114;40.350;2022-08-14T22:56:53;24.80;24.80;15.40
72509;PMS5003;60532;56.114;40.350;2022-08-14T23:01:59;24.00;22.60;14.00
72509;PMS5003;60532;56.114;40.350;2022-08-14T23:07:01;23.40;21.00;15.40
72509;PMS5003;60532;56.114;40.350;2022-08-14T23:12:01;26.40;23.80;14.80
72509;PMS5003;60532;56.114;40.350;2022-08-14T23:17:02;24.00;22.00;11.00
72509;PMS5003;60532;56.114;40.350;2022-08-14T23:22:05;29.20;24.00;15.00
72509;PMS5003;60532;56.114;40.350;2022-08-14T23:27:08;23.60;22.60;14.60
72509;PMS5003;60532;56.114;40.350;2022-08-14T23:32:09;18.00;17.75;7.75
72509;PMS5003;60532;56.114;40.350;2022-08-14T23:37:09;23.25;20.00;13.75
72509;PMS5003;60532;56.114;40.350;2022-08-14T23:42:10;22.50;20.25;14.00
72509;PMS5003;60532;56.114;40.350;2022-08-14T23:47:13;21.20;21.20;11.40
72509;PMS5003;60532;56.114;40.350;2022-08-14T23:52:15;19.40;17.80;9.00
72509;PMS5003;60532;56.114;40.350;2022-08-14T23:57:16;22.25;19.25;12.50
